sensor_id;sensor_type;location;lat;lon;timestamp;temperature;humidity
18906;DHT22;9585;51.018;4.282;2023-04-28T00:01:12;8.50;99.90
18906;DHT22;9585;51.018;4.282;2023-04-28T00:03:39;8.60;99.90
18906;DHT22;9585;51.018;4.282;2023-04-28T00:06:07;8.50;99.90
18906;DHT22;9585;51.018;4.282;2023-04-28T00:08:36;8.40;99.90
18906;DHT22;9585;51.018;4.282;2023-04-28T00:11:08;8.30;99.90
18906;DHT22;9585;51.018;4.282;2023-04-28T00:13:37;8.30;99.90
18906;DHT22;9585;51.018;4.282;2023-04-28T00:16:05;8.20;99.90
18906;DHT22;9585;51.018;4.282;2023-04-28T00:18:33;8.20;99.90
18906;DHT22;9585;51.018;4.282;2023-04-28T00:21:01;8.20;99.90
18906;DHT22;9585;51.018;4.282;2023-04-28T00:23:28;8.30;99.90
18906;DHT22;9585;51.018;4.282;2023-04-28T00:25:58;8.40;99.90
18906;DHT22;9585;51.018;4.282;2023-04-28T00:28:25;8.50;99.90
18906;DHT22;9585;51.018;4.282;2023-04-28T00:30:54;8.50;99.90
18906;DHT22;9585;51.018;4.282;2023-04-28T00:33:22;8.40;99.90
18906;DHT22;9585;51.018;4.282;2023-04-28T00:35:53;8.50;99.90
18906;DHT22;9585;51.018;4.282;2023-04-28T00:38:24;8.50;99.90
18906;DHT22;9585;51.018;4.282;2023-04-28T00:40:55;8.60;99.90
18906;DHT22;9585;51.018;4.282;2023-04-28T00:43:22;8.50;99.90
18906;DHT22;9585;51.018;4.282;2023-04-28T00:45:50;8.60;99.90
18906;DHT22;9585;51.018;4.282;2023-04-28T00:48:19;8.60;99.90
18906;DHT22;9585;51.018;4.282;2023-04-28T00:50:47;8.70;99.90
18906;DHT22;9585;51.018;4.282;2023-04-28T00:53:22;8.70;99.90
18906;DHT22;9585;51.018;4.282;2023-04-28T00:55:52;8.70;99.90
18906;DHT22;9585;51.018;4.282;2023-04-28T00:58:22;8.70;99.90
18906;DHT22;9585;51.018;4.282;2023-04-28T01:00:50;8.70;99.90
18906;DHT22;9585;51.018;4.282;2023-04-28T01:03:19;8.60;99.90
18906;DHT22;9585;51.018;4.282;2023-04-28T01:05:48;8.70;99.90
18906;DHT22;9585;51.018;4.282;2023-04-28T01:08:22;8.70;99.90
18906;DHT22;9585;51.018;4.282;2023-04-28T01:10:50;8.80;99.90
18906;DHT22;9585;51.018;4.282;2023-04-28T01:13:17;8.90;99.90
18906;DHT22;9585;51.018;4.282;2023-04-28T01:15:44;8.80;99.90
18906;DHT22;9585;51.018;4.282;2023-04-28T01:18:12;8.80;99.90
18906;DHT22;9585;51.018;4.282;2023-04-28T01:20:41;8.90;99.90
18906;DHT22;9585;51.018;4.282;2023-04-28T01:23:11;8.90;99.90
18906;DHT22;9585;51.018;4.282;2023-04-28T01:25:41;8.90;99.90
18906;DHT22;9585;51.018;4.282;2023-04-28T01:28:09;8.90;99.90
18906;DHT22;9585;51.018;4.282;2023-04-28T01:30:36;8.90;99.90
18906;DHT22;9585;51.018;4.282;2023-04-28T01:33:09;8.80;99.90
18906;DHT22;9585;51.018;4.282;2023-04-28T01:35:39;8.70;99.90
18906;DHT22;9585;51.018;4.282;2023-04-28T01:38:09;8.60;99.90
18906;DHT22;9585;51.018;4.282;2023-04-28T01:40:45;8.40;99.90
18906;DHT22;9585;51.018;4.282;2023-04-28T01:43:19;8.20;99.90
18906;DHT22;9585;51.018;4.282;2023-04-28T01:45:53;8.20;99.90
18906;DHT22;9585;51.018;4.282;2023-04-28T01:48:21;8.20;99.90
18906;DHT22;9585;51.018;4.282;2023-04-28T01:50:51;8.20;99.90
18906;DHT22;9585;51.018;4.282;2023-04-28T01:53:22;8.20;99.90
18906;DHT22;9585;51.018;4.282;2023-04-28T01:55:54;8.10;99.90
18906;DHT22;9585;51.018;4.282;2023-04-28T01:58:23;7.80;99.90
18906;DHT22;9585;51.018;4.282;2023-04-28T02:00:50;7.60;99.90
18906;DHT22;9585;51.018;4.282;2023-04-28T02:03:18;7.60;99.90
18906;DHT22;9585;51.018;4.282;2023-04-28T02:05:47;7.60;99.90
18906;DHT22;9585;51.018;4.282;2023-04-28T02:08:17;7.50;99.90
18906;DHT22;9585;51.018;4.282;2023-04-28T02:10:46;7.40;99.90
18906;DHT22;9585;51.018;4.282;2023-04-28T02:13:19;7.40;99.90
18906;DHT22;9585;51.018;4.282;2023-04-28T02:15:47;7.50;99.90
18906;DHT22;9585;51.018;4.282;2023-04-28T02:18:15;7.70;99.90
18906;DHT22;9585;51.018;4.282;2023-04-28T02:20:42;7.90;99.90
18906;DHT22;9585;51.018;4.282;2023-04-28T02:23:13;8.00;99.90
18906;DHT22;9585;51.018;4.282;2023-04-28T02:25:40;7.90;99.90
18906;DHT22;9585;51.018;4.282;2023-04-28T02:28:10;7.90;99.90
18906;DHT22;9585;51.018;4.282;2023-04-28T02:30:39;7.90;99.90
18906;DHT22;9585;51.018;4.282;2023-04-28T02:33:07;8.00;99.90
18906;DHT22;9585;51.018;4.282;2023-04-28T02:35:34;8.00;99.90
18906;DHT22;9585;51.018;4.282;2023-04-28T02:38:16;8.00;99.90
18906;DHT22;9585;51.018;4.282;2023-04-28T02:40:48;8.10;99.90
18906;DHT22;9585;51.018;4.282;2023-04-28T02:43:24;8.10;99.90
18906;DHT22;9585;51.018;4.282;2023-04-28T02:45:57;8.10;99.90
18906;DHT22;9585;51.018;4.282;2023-04-28T02:48:26;8.10;99.90
18906;DHT22;9585;51.018;4.282;2023-04-28T02:50:57;8.00;99.90
18906;DHT22;9585;51.018;4.282;2023-04-28T02:53:25;7.90;99.90
18906;DHT22;9585;51.018;4.282;2023-04-28T02:55:53;7.90;99.90
18906;DHT22;9585;51.018;4.282;2023-04-28T02:58:21;7.90;99.90
18906;DHT22;9585;51.018;4.282;2023-04-28T03:00:50;8.10;99.90
18906;DHT22;9585;51.018;4.282;2023-04-28T03:03:19;8.00;99.90
18906;DHT22;9585;51.018;4.282;2023-04-28T03:05:47;7.90;99.90
18906;DHT22;9585;51.018;4.282;2023-04-28T03:08:14;7.90;99.90
18906;DHT22;9585;51.018;4.282;2023-04-28T03:10:42;8.00;99.90
18906;DHT22;9585;51.018;4.282;2023-04-28T03:13:10;8.00;99.90
18906;DHT22;9585;51.018;4.282;2023-04-28T03:15:47;8.00;99.90
18906;DHT22;9585;51.018;4.282;2023-04-28T03:18:15;8.20;99.90
18906;DHT22;9585;51.018;4.282;2023-04-28T03:20:49;8.30;99.90
18906;DHT22;9585;51.018;4.282;2023-04-28T03:23:19;8.40;99.90
18906;DHT22;9585;51.018;4.282;2023-04-28T03:25:48;8.40;99.90
18906;DHT22;9585;51.018;4.282;2023-04-28T03:28:19;8.40;99.90
18906;DHT22;9585;51.018;4.282;2023-04-28T03:30:47;8.40;99.90
18906;DHT22;9585;51.018;4.282;2023-04-28T03:33:14;8.50;99.90
18906;DHT22;9585;51.018;4.282;2023-04-28T03:35:47;8.60;99.90
18906;DHT22;9585;51.018;4.282;2023-04-28T03:38:16;8.40;99.90
18906;DHT22;9585;51.018;4.282;2023-04-28T03:40:50;8.40;99.90
18906;DHT22;9585;51.018;4.282;2023-04-28T03:43:22;8.30;99.90
18906;DHT22;9585;51.018;4.282;2023-04-28T03:46:06;8.20;99.90
18906;DHT22;9585;51.018;4.282;2023-04-28T03:48:34;8.20;99.90
18906;DHT22;9585;51.018;4.282;2023-04-28T03:51:02;8.10;99.90
18906;DHT22;9585;51.018;4.282;2023-04-28T03:53:31;8.10;99.90
18906;DHT22;9585;51.018;4.282;2023-04-28T03:55:59;8.10;99.90
18906;DHT22;9585;51.018;4.282;2023-04-28T03:58:33;8.10;99.90
18906;DHT22;9585;51.018;4.282;2023-04-28T04:01:00;8.10;99.90
18906;DHT22;9585;51.018;4.282;2023-04-28T04:03:30;8.00;99.90
18906;DHT22;9585;51.018;4.282;2023-04-28T04:05:58;8.10;99.90
18906;DHT22;9585;51.018;4.282;2023-04-28T04:08:28;8.10;99.90
18906;DHT22;9585;51.018;4.282;2023-04-28T04:10:59;8.10;99.90
18906;DHT22;9585;51.018;4.282;2023-04-28T04:13:27;8.10;99.90
18906;DHT22;9585;51.018;4.282;2023-04-28T04:15:58;8.10;99.90
18906;DHT22;9585;51.018;4.282;2023-04-28T04:18:25;8.00;99.90
18906;DHT22;9585;51.018;4.282;2023-04-28T04:20:56;8.00;99.90
18906;DHT22;9585;51.018;4.282;2023-04-28T04:23:25;8.00;99.90
18906;DHT22;9585;51.018;4.282;2023-04-28T04:25:55;7.90;99.90
18906;DHT22;9585;51.018;4.282;2023-04-28T04:28:25;8.00;99.90
18906;DHT22;9585;51.018;4.282;2023-04-28T04:30:53;7.90;99.90
18906;DHT22;9585;51.018;4.282;2023-04-28T04:33:51;7.90;99.90
18906;DHT22;9585;51.018;4.282;2023-04-28T04:36:21;7.90;99.90
18906;DHT22;9585;51.018;4.282;2023-04-28T04:39:03;7.90;99.90
18906;DHT22;9585;51.018;4.282;2023-04-28T04:41:37;8.00;99.90
18906;DHT22;9585;51.018;4.282;2023-04-28T04:44:15;8.20;99.90
18906;DHT22;9585;51.018;4.282;2023-04-28T04:47:19;8.10;99.90
18906;DHT22;9585;51.018;4.282;2023-04-28T04:49:48;8.10;99.90
18906;DHT22;9585;51.018;4.282;2023-04-28T04:52:18;8.30;99.90
18906;DHT22;9585;51.018;4.282;2023-04-28T04:55:03;8.30;99.90
18906;DHT22;9585;51.018;4.282;2023-04-28T04:57:41;8.50;99.90
18906;DHT22;9585;51.018;4.282;2023-04-28T05:00:17;8.40;99.90
18906;DHT22;9585;51.018;4.282;2023-04-28T05:02:50;8.40;99.90
18906;DHT22;9585;51.018;4.282;2023-04-28T05:05:20;8.50;99.90
18906;DHT22;9585;51.018;4.282;2023-04-28T05:07:50;8.50;99.90
18906;DHT22;9585;51.018;4.282;2023-04-28T05:10:23;8.50;99.90
18906;DHT22;9585;51.018;4.282;2023-04-28T05:12:54;8.50;99.90
18906;DHT22;9585;51.018;4.282;2023-04-28T05:15:26;8.50;99.90
18906;DHT22;9585;51.018;4.282;2023-04-28T05:18:02;8.50;99.90
18906;DHT22;9585;51.018;4.282;2023-04-28T05:20:36;8.60;99.90
18906;DHT22;9585;51.018;4.282;2023-04-28T05:23:10;8.70;99.90
18906;DHT22;9585;51.018;4.282;2023-04-28T05:25:40;8.70;99.90
18906;DHT22;9585;51.018;4.282;2023-04-28T05:28:10;8.70;99.90
18906;DHT22;9585;51.018;4.282;2023-04-28T05:30:44;8.80;99.90
18906;DHT22;9585;51.018;4.282;2023-04-28T05:33:52;8.90;99.90
18906;DHT22;9585;51.018;4.282;2023-04-28T05:36:29;9.00;99.90
18906;DHT22;9585;51.018;4.282;2023-04-28T05:39:36;9.10;99.90
18906;DHT22;9585;51.018;4.282;2023-04-28T05:42:04;9.20;99.90
18906;DHT22;9585;51.018;4.282;2023-04-28T05:44:32;9.10;99.90
18906;DHT22;9585;51.018;4.282;2023-04-28T05:47:01;9.20;99.90
18906;DHT22;9585;51.018;4.282;2023-04-28T05:49:28;9.20;99.90
18906;DHT22;9585;51.018;4.282;2023-04-28T05:51:55;9.30;99.90
18906;DHT22;9585;51.018;4.282;2023-04-28T05:54:23;9.40;99.90
18906;DHT22;9585;51.018;4.282;2023-04-28T05:56:51;9.40;99.90
18906;DHT22;9585;51.018;4.282;2023-04-28T05:59:19;9.50;99.90
18906;DHT22;9585;51.018;4.282;2023-04-28T06:01:46;9.50;99.90
18906;DHT22;9585;51.018;4.282;2023-04-28T06:04:17;9.50;99.90
18906;DHT22;9585;51.018;4.282;2023-04-28T06:06:44;9.50;99.90
18906;DHT22;9585;51.018;4.282;2023-04-28T06:09:12;9.50;99.90
18906;DHT22;9585;51.018;4.282;2023-04-28T06:11:39;9.70;99.90
18906;DHT22;9585;51.018;4.282;2023-04-28T06:14:06;9.70;99.90
18906;DHT22;9585;51.018;4.282;2023-04-28T06:16:34;9.80;99.90
18906;DHT22;9585;51.018;4.282;2023-04-28T06:19:02;9.90;99.90
18906;DHT22;9585;51.018;4.282;2023-04-28T06:21:31;10.00;99.90
18906;DHT22;9585;51.018;4.282;2023-04-28T06:23:58;10.00;99.90
18906;DHT22;9585;51.018;4.282;2023-04-28T06:26:26;10.10;99.90
18906;DHT22;9585;51.018;4.282;2023-04-28T06:28:54;10.20;99.90
18906;DHT22;9585;51.018;4.282;2023-04-28T06:31:21;10.30;99.90
18906;DHT22;9585;51.018;4.282;2023-04-28T06:33:49;10.40;99.90
18906;DHT22;9585;51.018;4.282;2023-04-28T06:36:21;10.60;99.90
18906;DHT22;9585;51.018;4.282;2023-04-28T06:38:51;10.70;99.90
18906;DHT22;9585;51.018;4.282;2023-04-28T06:41:18;11.00;99.90
18906;DHT22;9585;51.018;4.282;2023-04-28T06:43:46;11.30;99.90
18906;DHT22;9585;51.018;4.282;2023-04-28T06:46:13;11.50;99.90
18906;DHT22;9585;51.018;4.282;2023-04-28T06:48:41;11.70;99.90
18906;DHT22;9585;51.018;4.282;2023-04-28T06:51:14;11.80;99.90
18906;DHT22;9585;51.018;4.282;2023-04-28T06:53:44;11.90;99.90
18906;DHT22;9585;51.018;4.282;2023-04-28T06:56:15;12.00;99.90
18906;DHT22;9585;51.018;4.282;2023-04-28T06:58:45;11.90;99.90
18906;DHT22;9585;51.018;4.282;2023-04-28T07:01:13;12.10;99.90
18906;DHT22;9585;51.018;4.282;2023-04-28T07:03:41;12.10;99.90
18906;DHT22;9585;51.018;4.282;2023-04-28T07:06:09;12.20;99.90
18906;DHT22;9585;51.018;4.282;2023-04-28T07:08:37;12.20;99.90
18906;DHT22;9585;51.018;4.282;2023-04-28T07:11:05;12.30;99.90
18906;DHT22;9585;51.018;4.282;2023-04-28T07:13:34;12.40;99.90
18906;DHT22;9585;51.018;4.282;2023-04-28T07:16:03;12.40;99.90
18906;DHT22;9585;51.018;4.282;2023-04-28T07:18:31;12.50;99.90
18906;DHT22;9585;51.018;4.282;2023-04-28T07:21:02;12.60;99.90
18906;DHT22;9585;51.018;4.282;2023-04-28T07:23:48;12.70;99.90
18906;DHT22;9585;51.018;4.282;2023-04-28T07:26:29;12.80;99.90
18906;DHT22;9585;51.018;4.282;2023-04-28T07:29:10;12.90;99.90
18906;DHT22;9585;51.018;4.282;2023-04-28T07:31:41;13.00;99.90
18906;DHT22;9585;51.018;4.282;2023-04-28T07:34:11;13.10;99.90
18906;DHT22;9585;51.018;4.282;2023-04-28T07:36:39;13.20;99.90
18906;DHT22;9585;51.018;4.282;2023-04-28T07:39:07;13.30;99.90
18906;DHT22;9585;51.018;4.282;2023-04-28T07:41:35;13.50;99.90
18906;DHT22;9585;51.018;4.282;2023-04-28T07:44:06;13.70;99.90
18906;DHT22;9585;51.018;4.282;2023-04-28T07:46:34;13.70;99.90
18906;DHT22;9585;51.018;4.282;2023-04-28T07:49:01;13.80;99.90
18906;DHT22;9585;51.018;4.282;2023-04-28T07:51:33;13.80;99.90
18906;DHT22;9585;51.018;4.282;2023-04-28T07:54:03;13.80;99.90
18906;DHT22;9585;51.018;4.282;2023-04-28T07:56:31;13.80;99.90
18906;DHT22;9585;51.018;4.282;2023-04-28T07:58:59;13.80;99.90
18906;DHT22;9585;51.018;4.282;2023-04-28T08:01:28;13.80;99.90
18906;DHT22;9585;51.018;4.282;2023-04-28T08:03:56;13.80;99.90
18906;DHT22;9585;51.018;4.282;2023-04-28T08:06:23;13.80;99.90
18906;DHT22;9585;51.018;4.282;2023-04-28T08:08:51;13.80;99.90
18906;DHT22;9585;51.018;4.282;2023-04-28T08:11:19;13.90;99.90
18906;DHT22;9585;51.018;4.282;2023-04-28T08:13:47;13.90;99.90
18906;DHT22;9585;51.018;4.282;2023-04-28T08:16:15;13.90;99.90
18906;DHT22;9585;51.018;4.282;2023-04-28T08:18:44;13.90;99.90
18906;DHT22;9585;51.018;4.282;2023-04-28T08:21:12;13.90;99.90
18906;DHT22;9585;51.018;4.282;2023-04-28T08:23:42;14.00;99.90
18906;DHT22;9585;51.018;4.282;2023-04-28T08:26:09;14.10;99.90
18906;DHT22;9585;51.018;4.282;2023-04-28T08:28:37;14.10;99.90
18906;DHT22;9585;51.018;4.282;2023-04-28T08:31:05;14.30;99.90
18906;DHT22;9585;51.018;4.282;2023-04-28T08:33:33;14.40;99.90
18906;DHT22;9585;51.018;4.282;2023-04-28T08:36:02;14.40;99.90
18906;DHT22;9585;51.018;4.282;2023-04-28T08:38:30;14.40;99.90
18906;DHT22;9585;51.018;4.282;2023-04-28T08:40:58;14.40;99.90
18906;DHT22;9585;51.018;4.282;2023-04-28T08:43:25;14.50;99.90
18906;DHT22;9585;51.018;4.282;2023-04-28T08:45:55;14.50;99.90
18906;DHT22;9585;51.018;4.282;2023-04-28T08:48:22;14.60;99.90
18906;DHT22;9585;51.018;4.282;2023-04-28T08:50:51;14.80;99.90
18906;DHT22;9585;51.018;4.282;2023-04-28T08:53:24;14.80;99.90
18906;DHT22;9585;51.018;4.282;2023-04-28T08:55:59;14.80;99.90
18906;DHT22;9585;51.018;4.282;2023-04-28T08:58:35;14.90;99.90
18906;DHT22;9585;51.018;4.282;2023-04-28T09:01:03;14.90;99.90
18906;DHT22;9585;51.018;4.282;2023-04-28T09:03:31;15.10;99.90
18906;DHT22;9585;51.018;4.282;2023-04-28T09:05:59;15.30;99.90
18906;DHT22;9585;51.018;4.282;2023-04-28T09:08:29;15.60;99.90
18906;DHT22;9585;51.018;4.282;2023-04-28T09:11:06;15.70;99.90
18906;DHT22;9585;51.018;4.282;2023-04-28T09:13:35;15.70;99.90
18906;DHT22;9585;51.018;4.282;2023-04-28T09:16:03;15.70;99.90
18906;DHT22;9585;51.018;4.282;2023-04-28T09:18:31;15.60;99.90
18906;DHT22;9585;51.018;4.282;2023-04-28T09:21:05;15.80;99.90
18906;DHT22;9585;51.018;4.282;2023-04-28T09:23:46;15.80;99.90
18906;DHT22;9585;51.018;4.282;2023-04-28T09:26:15;16.00;99.90
18906;DHT22;9585;51.018;4.282;2023-04-28T09:28:45;16.00;99.90
18906;DHT22;9585;51.018;4.282;2023-04-28T09:31:23;16.10;99.90
18906;DHT22;9585;51.018;4.282;2023-04-28T09:33:56;16.20;99.90
18906;DHT22;9585;51.018;4.282;2023-04-28T09:36:26;16.20;99.90
18906;DHT22;9585;51.018;4.282;2023-04-28T09:38:58;16.20;99.90
18906;DHT22;9585;51.018;4.282;2023-04-28T09:41:35;16.00;99.90
18906;DHT22;9585;51.018;4.282;2023-04-28T09:44:14;15.90;99.90
18906;DHT22;9585;51.018;4.282;2023-04-28T09:46:44;15.80;99.90
18906;DHT22;9585;51.018;4.282;2023-04-28T09:49:12;15.70;99.90
18906;DHT22;9585;51.018;4.282;2023-04-28T09:51:42;15.60;99.90
18906;DHT22;9585;51.018;4.282;2023-04-28T09:54:13;15.50;99.90
18906;DHT22;9585;51.018;4.282;2023-04-28T09:56:43;15.60;99.90
18906;DHT22;9585;51.018;4.282;2023-04-28T09:59:15;15.50;99.90
18906;DHT22;9585;51.018;4.282;2023-04-28T10:01:48;15.40;99.90
18906;DHT22;9585;51.018;4.282;2023-04-28T10:04:16;15.20;99.90
18906;DHT22;9585;51.018;4.282;2023-04-28T10:06:44;15.10;99.90
18906;DHT22;9585;51.018;4.282;2023-04-28T10:09:13;15.10;99.90
18906;DHT22;9585;51.018;4.282;2023-04-28T10:11:43;15.20;99.90
18906;DHT22;9585;51.018;4.282;2023-04-28T10:14:11;15.30;99.90
18906;DHT22;9585;51.018;4.282;2023-04-28T10:16:38;15.30;99.90
18906;DHT22;9585;51.018;4.282;2023-04-28T10:19:07;15.30;99.90
18906;DHT22;9585;51.018;4.282;2023-04-28T10:21:41;15.30;99.90
18906;DHT22;9585;51.018;4.282;2023-04-28T10:24:20;15.30;99.90
18906;DHT22;9585;51.018;4.282;2023-04-28T10:27:10;15.30;99.90
18906;DHT22;9585;51.018;4.282;2023-04-28T10:29:38;15.40;99.90
18906;DHT22;9585;51.018;4.282;2023-04-28T10:32:22;15.40;99.90
18906;DHT22;9585;51.018;4.282;2023-04-28T10:34:51;15.50;99.90
18906;DHT22;9585;51.018;4.282;2023-04-28T10:37:18;15.30;99.90
18906;DHT22;9585;51.018;4.282;2023-04-28T10:42:53;15.30;99.90
18906;DHT22;9585;51.018;4.282;2023-04-28T10:48:57;15.50;99.90
18906;DHT22;9585;51.018;4.282;2023-04-28T10:51:32;15.50;99.90
18906;DHT22;9585;51.018;4.282;2023-04-28T10:54:08;15.30;99.90
18906;DHT22;9585;51.018;4.282;2023-04-28T10:56:36;15.30;99.90
18906;DHT22;9585;51.018;4.282;2023-04-28T10:59:25;15.30;99.90
18906;DHT22;9585;51.018;4.282;2023-04-28T11:01:53;15.30;99.90
18906;DHT22;9585;51.018;4.282;2023-04-28T11:04:21;15.30;99.90
18906;DHT22;9585;51.018;4.282;2023-04-28T11:07:10;15.20;99.90
18906;DHT22;9585;51.018;4.282;2023-04-28T11:09:57;15.10;99.90
18906;DHT22;9585;51.018;4.282;2023-04-28T11:12:24;15.10;99.90
18906;DHT22;9585;51.018;4.282;2023-04-28T11:14:54;15.10;99.90
18906;DHT22;9585;51.018;4.282;2023-04-28T11:17:39;15.00;99.90
18906;DHT22;9585;51.018;4.282;2023-04-28T11:20:11;15.00;99.90
18906;DHT22;9585;51.018;4.282;2023-04-28T11:22:40;14.90;99.90
18906;DHT22;9585;51.018;4.282;2023-04-28T11:25:08;14.80;99.90
18906;DHT22;9585;51.018;4.282;2023-04-28T11:27:36;14.70;99.90
18906;DHT22;9585;51.018;4.282;2023-04-28T11:30:19;14.50;99.90
18906;DHT22;9585;51.018;4.282;2023-04-28T11:32:48;14.40;99.90
18906;DHT22;9585;51.018;4.282;2023-04-28T11:35:17;14.40;99.90
18906;DHT22;9585;51.018;4.282;2023-04-28T11:37:45;14.30;99.90
18906;DHT22;9585;51.018;4.282;2023-04-28T11:40:16;14.30;99.90
18906;DHT22;9585;51.018;4.282;2023-04-28T11:42:47;14.30;99.90
18906;DHT22;9585;51.018;4.282;2023-04-28T11:45:16;14.20;99.90
18906;DHT22;9585;51.018;4.282;2023-04-28T11:47:44;14.20;99.90
18906;DHT22;9585;51.018;4.282;2023-04-28T11:50:12;14.30;99.90
18906;DHT22;9585;51.018;4.282;2023-04-28T11:52:48;14.30;99.90
18906;DHT22;9585;51.018;4.282;2023-04-28T11:55:17;14.40;99.90
18906;DHT22;9585;51.018;4.282;2023-04-28T11:57:44;14.40;99.90
18906;DHT22;9585;51.018;4.282;2023-04-28T12:00:13;14.50;99.90
18906;DHT22;9585;51.018;4.282;2023-04-28T12:02:45;14.60;99.90
18906;DHT22;9585;51.018;4.282;2023-04-28T12:05:13;14.70;99.90
18906;DHT22;9585;51.018;4.282;2023-04-28T12:07:43;14.90;99.90
18906;DHT22;9585;51.018;4.282;2023-04-28T12:10:12;14.90;99.90
18906;DHT22;9585;51.018;4.282;2023-04-28T12:12:41;14.90;99.90
18906;DHT22;9585;51.018;4.282;2023-04-28T12:15:09;15.10;99.90
18906;DHT22;9585;51.018;4.282;2023-04-28T12:17:38;15.10;99.90
18906;DHT22;9585;51.018;4.282;2023-04-28T12:20:09;15.20;99.90
18906;DHT22;9585;51.018;4.282;2023-04-28T12:22:45;15.10;99.90
18906;DHT22;9585;51.018;4.282;2023-04-28T12:25:13;14.90;99.90
18906;DHT22;9585;51.018;4.282;2023-04-28T12:27:58;14.80;99.90
18906;DHT22;9585;51.018;4.282;2023-04-28T12:30:28;14.70;99.90
18906;DHT22;9585;51.018;4.282;2023-04-28T12:32:55;14.70;99.90
18906;DHT22;9585;51.018;4.282;2023-04-28T12:35:29;14.70;99.90
18906;DHT22;9585;51.018;4.282;2023-04-28T12:37:58;14.80;99.90
18906;DHT22;9585;51.018;4.282;2023-04-28T12:40:25;14.80;99.90
18906;DHT22;9585;51.018;4.282;2023-04-28T12:42:53;14.70;99.90
18906;DHT22;9585;51.018;4.282;2023-04-28T12:45:21;14.70;99.90
18906;DHT22;9585;51.018;4.282;2023-04-28T12:47:49;14.70;99.90
18906;DHT22;9585;51.018;4.282;2023-04-28T12:50:16;14.80;99.90
18906;DHT22;9585;51.018;4.282;2023-04-28T12:52:46;14.90;99.90
18906;DHT22;9585;51.018;4.282;2023-04-28T12:55:14;15.10;99.90
18906;DHT22;9585;51.018;4.282;2023-04-28T12:57:41;15.20;99.90
18906;DHT22;9585;51.018;4.282;2023-04-28T13:00:10;15.20;99.90
18906;DHT22;9585;51.018;4.282;2023-04-28T13:02:41;15.10;99.90
18906;DHT22;9585;51.018;4.282;2023-04-28T13:05:09;15.00;99.90
18906;DHT22;9585;51.018;4.282;2023-04-28T13:07:37;14.90;99.90
18906;DHT22;9585;51.018;4.282;2023-04-28T13:10:07;14.90;99.90
18906;DHT22;9585;51.018;4.282;2023-04-28T13:12:35;14.80;99.90
18906;DHT22;9585;51.018;4.282;2023-04-28T13:15:03;14.80;99.90
18906;DHT22;9585;51.018;4.282;2023-04-28T13:17:30;14.70;99.90
18906;DHT22;9585;51.018;4.282;2023-04-28T13:19:58;14.70;99.90
18906;DHT22;9585;51.018;4.282;2023-04-28T13:22:26;14.60;99.90
18906;DHT22;9585;51.018;4.282;2023-04-28T13:24:54;14.70;99.90
18906;DHT22;9585;51.018;4.282;2023-04-28T13:27:23;14.80;99.90
18906;DHT22;9585;51.018;4.282;2023-04-28T13:29:50;14.80;99.90
18906;DHT22;9585;51.018;4.282;2023-04-28T13:32:18;14.90;99.90
18906;DHT22;9585;51.018;4.282;2023-04-28T13:34:46;14.90;99.90
18906;DHT22;9585;51.018;4.282;2023-04-28T13:37:13;14.80;99.90
18906;DHT22;9585;51.018;4.282;2023-04-28T13:39:41;14.70;99.90
18906;DHT22;9585;51.018;4.282;2023-04-28T13:42:11;14.70;99.90
18906;DHT22;9585;51.018;4.282;2023-04-28T13:44:45;14.70;99.90
18906;DHT22;9585;51.018;4.282;2023-04-28T13:47:14;14.60;99.90
18906;DHT22;9585;51.018;4.282;2023-04-28T13:49:42;14.50;99.90
18906;DHT22;9585;51.018;4.282;2023-04-28T13:52:09;14.40;99.90
18906;DHT22;9585;51.018;4.282;2023-04-28T13:54:36;14.40;99.90
18906;DHT22;9585;51.018;4.282;2023-04-28T13:57:04;14.40;99.90
18906;DHT22;9585;51.018;4.282;2023-04-28T13:59:33;14.40;99.90
18906;DHT22;9585;51.018;4.282;2023-04-28T14:02:02;14.50;99.90
18906;DHT22;9585;51.018;4.282;2023-04-28T14:04:30;14.50;99.90
18906;DHT22;9585;51.018;4.282;2023-04-28T14:06:57;14.50;99.90
18906;DHT22;9585;51.018;4.282;2023-04-28T14:09:26;14.50;99.90
18906;DHT22;9585;51.018;4.282;2023-04-28T14:11:54;14.70;99.90
18906;DHT22;9585;51.018;4.282;2023-04-28T14:14:23;14.80;99.90
18906;DHT22;9585;51.018;4.282;2023-04-28T14:16:51;15.00;99.90
18906;DHT22;9585;51.018;4.282;2023-04-28T14:19:20;15.20;99.90
18906;DHT22;9585;51.018;4.282;2023-04-28T14:21:49;15.30;99.90
18906;DHT22;9585;51.018;4.282;2023-04-28T14:24:17;15.30;99.90
18906;DHT22;9585;51.018;4.282;2023-04-28T14:26:45;15.50;99.90
18906;DHT22;9585;51.018;4.282;2023-04-28T14:29:14;15.70;99.90
18906;DHT22;9585;51.018;4.282;2023-04-28T14:31:42;15.70;99.90
18906;DHT22;9585;51.018;4.282;2023-04-28T14:34:10;15.70;99.90
18906;DHT22;9585;51.018;4.282;2023-04-28T14:36:39;15.60;99.90
18906;DHT22;9585;51.018;4.282;2023-04-28T14:39:07;15.50;99.90
18906;DHT22;9585;51.018;4.282;2023-04-28T14:41:34;15.50;99.90
18906;DHT22;9585;51.018;4.282;2023-04-28T14:44:05;15.50;99.90
18906;DHT22;9585;51.018;4.282;2023-04-28T14:46:33;15.60;99.90
18906;DHT22;9585;51.018;4.282;2023-04-28T14:49:03;15.80;99.90
18906;DHT22;9585;51.018;4.282;2023-04-28T14:51:31;15.90;99.90
18906;DHT22;9585;51.018;4.282;2023-04-28T14:54:01;16.00;99.90
18906;DHT22;9585;51.018;4.282;2023-04-28T14:56:29;16.20;99.90
18906;DHT22;9585;51.018;4.282;2023-04-28T14:58:57;16.20;99.90
18906;DHT22;9585;51.018;4.282;2023-04-28T15:01:25;16.20;99.90
18906;DHT22;9585;51.018;4.282;2023-04-28T15:03:52;16.10;99.90
18906;DHT22;9585;51.018;4.282;2023-04-28T15:06:20;15.90;99.90
18906;DHT22;9585;51.018;4.282;2023-04-28T15:08:47;15.80;99.90
18906;DHT22;9585;51.018;4.282;2023-04-28T15:11:17;15.80;99.90
18906;DHT22;9585;51.018;4.282;2023-04-28T15:13:44;15.80;99.90
18906;DHT22;9585;51.018;4.282;2023-04-28T15:16:12;15.70;99.90
18906;DHT22;9585;51.018;4.282;2023-04-28T15:18:40;15.50;99.90
18906;DHT22;9585;51.018;4.282;2023-04-28T15:21:09;15.50;99.90
18906;DHT22;9585;51.018;4.282;2023-04-28T15:23:37;15.50;99.90
18906;DHT22;9585;51.018;4.282;2023-04-28T15:26:04;15.60;99.90
18906;DHT22;9585;51.018;4.282;2023-04-28T15:28:39;15.60;99.90
18906;DHT22;9585;51.018;4.282;2023-04-28T15:31:07;15.60;99.90
18906;DHT22;9585;51.018;4.282;2023-04-28T15:33:34;15.60;99.90
18906;DHT22;9585;51.018;4.282;2023-04-28T15:36:02;15.60;99.90
18906;DHT22;9585;51.018;4.282;2023-04-28T15:38:30;15.60;99.90
18906;DHT22;9585;51.018;4.282;2023-04-28T15:40:59;15.50;99.90
18906;DHT22;9585;51.018;4.282;2023-04-28T15:43:26;15.40;99.90
18906;DHT22;9585;51.018;4.282;2023-04-28T15:45:55;15.30;99.90
18906;DHT22;9585;51.018;4.282;2023-04-28T15:48:23;15.30;99.90
18906;DHT22;9585;51.018;4.282;2023-04-28T15:50:52;15.20;99.90
18906;DHT22;9585;51.018;4.282;2023-04-28T15:53:21;15.00;99.90
18906;DHT22;9585;51.018;4.282;2023-04-28T15:55:49;14.90;99.90
18906;DHT22;9585;51.018;4.282;2023-04-28T15:58:17;14.80;99.90
18906;DHT22;9585;51.018;4.282;2023-04-28T16:00:45;14.60;99.90
18906;DHT22;9585;51.018;4.282;2023-04-28T16:03:14;14.60;99.90
18906;DHT22;9585;51.018;4.282;2023-04-28T16:05:41;14.70;99.90
18906;DHT22;9585;51.018;4.282;2023-04-28T16:08:10;14.80;99.90
18906;DHT22;9585;51.018;4.282;2023-04-28T16:10:38;14.90;99.90
18906;DHT22;9585;51.018;4.282;2023-04-28T16:13:09;15.00;99.90
18906;DHT22;9585;51.018;4.282;2023-04-28T16:15:39;15.00;99.90
18906;DHT22;9585;51.018;4.282;2023-04-28T16:18:08;15.00;99.90